sensor_id;sensor_type;location;lat;lon;timestamp;P1;durP1;ratioP1;P2;durP2;ratioP2
19084;SDS011;9675;51.538;6.728;2023-02-18T00:01:32;17.27;;;8.03;;
19084;SDS011;9675;51.538;6.728;2023-02-18T00:03:59;14.67;;;6.97;;
19084;SDS011;9675;51.538;6.728;2023-02-18T00:06:28;12.50;;;6.43;;
19084;SDS011;9675;51.538;6.728;2023-02-18T00:08:57;14.40;;;7.57;;
19084;SDS011;9675;51.538;6.728;2023-02-18T00:11:26;20.33;;;9.17;;
19084;SDS011;9675;51.538;6.728;2023-02-18T00:13:56;18.47;;;8.47;;
19084;SDS011;9675;51.538;6.728;2023-02-18T00:16:27;16.03;;;7.67;;
19084;SDS011;9675;51.538;6.728;2023-02-18T00:18:56;14.60;;;7.03;;
19084;SDS011;9675;51.538;6.728;2023-02-18T00:21:25;14.33;;;6.67;;
19084;SDS011;9675;51.538;6.728;2023-02-18T00:23:52;9.50;;;5.70;;
19084;SDS011;9675;51.538;6.728;2023-02-18T00:26:20;16.17;;;6.83;;
19084;SDS011;9675;51.538;6.728;2023-02-18T00:28:47;16.03;;;7.67;;
19084;SDS011;9675;51.538;6.728;2023-02-18T00:31:16;12.47;;;6.53;;
19084;SDS011;9675;51.538;6.728;2023-02-18T00:33:48;20.67;;;10.00;;
19084;SDS011;9675;51.538;6.728;2023-02-18T00:36:16;16.33;;;7.50;;
19084;SDS011;9675;51.538;6.728;2023-02-18T00:38:45;16.40;;;8.67;;
19084;SDS011;9675;51.538;6.728;2023-02-18T00:41:14;12.00;;;5.70;;
19084;SDS011;9675;51.538;6.728;2023-02-18T00:43:43;19.60;;;9.33;;
19084;SDS011;9675;51.538;6.728;2023-02-18T00:46:10;18.50;;;7.37;;
19084;SDS011;9675;51.538;6.728;2023-02-18T00:48:38;16.53;;;8.33;;
19084;SDS011;9675;51.538;6.728;2023-02-18T00:51:06;13.67;;;7.77;;
19084;SDS011;9675;51.538;6.728;2023-02-18T00:53:34;16.37;;;8.23;;
19084;SDS011;9675;51.538;6.728;2023-02-18T00:56:02;14.60;;;7.27;;
19084;SDS011;9675;51.538;6.728;2023-02-18T00:58:32;11.97;;;6.53;;
19084;SDS011;9675;51.538;6.728;2023-02-18T01:01:00;15.73;;;7.03;;
19084;SDS011;9675;51.538;6.728;2023-02-18T01:03:28;13.90;;;7.20;;
19084;SDS011;9675;51.538;6.728;2023-02-18T01:05:55;14.23;;;7.43;;
19084;SDS011;9675;51.538;6.728;2023-02-18T01:08:24;12.93;;;6.97;;
19084;SDS011;9675;51.538;6.728;2023-02-18T01:10:52;14.33;;;7.27;;
19084;SDS011;9675;51.538;6.728;2023-02-18T01:13:22;18.40;;;8.03;;
19084;SDS011;9675;51.538;6.728;2023-02-18T01:15:50;17.87;;;7.10;;
19084;SDS011;9675;51.538;6.728;2023-02-18T01:18:17;19.27;;;9.30;;
19084;SDS011;9675;51.538;6.728;2023-02-18T01:20:46;16.43;;;7.17;;
19084;SDS011;9675;51.538;6.728;2023-02-18T01:23:14;12.17;;;6.23;;
19084;SDS011;9675;51.538;6.728;2023-02-18T01:25:43;16.07;;;7.77;;
19084;SDS011;9675;51.538;6.728;2023-02-18T01:28:10;18.70;;;7.83;;
19084;SDS011;9675;51.538;6.728;2023-02-18T01:30:39;17.10;;;7.03;;
19084;SDS011;9675;51.538;6.728;2023-02-18T01:33:07;11.77;;;6.57;;
19084;SDS011;9675;51.538;6.728;2023-02-18T01:35:36;14.67;;;6.60;;
19084;SDS011;9675;51.538;6.728;2023-02-18T01:38:05;15.83;;;7.47;;
19084;SDS011;9675;51.538;6.728;2023-02-18T01:40:32;18.13;;;7.90;;
19084;SDS011;9675;51.538;6.728;2023-02-18T01:43:01;17.27;;;8.73;;
19084;SDS011;9675;51.538;6.728;2023-02-18T01:48:46;14.37;;;6.73;;
19084;SDS011;9675;51.538;6.728;2023-02-18T01:51:19;17.20;;;7.70;;
19084;SDS011;9675;51.538;6.728;2023-02-18T01:53:51;10.77;;;5.73;;
19084;SDS011;9675;51.538;6.728;2023-02-18T01:56:24;15.53;;;7.30;;
19084;SDS011;9675;51.538;6.728;2023-02-18T01:58:56;12.83;;;6.80;;
19084;SDS011;9675;51.538;6.728;2023-02-18T02:01:28;18.67;;;8.33;;
19084;SDS011;9675;51.538;6.728;2023-02-18T02:03:57;13.37;;;6.93;;
19084;SDS011;9675;51.538;6.728;2023-02-18T02:06:25;15.13;;;7.70;;
19084;SDS011;9675;51.538;6.728;2023-02-18T02:08:53;14.63;;;6.03;;
19084;SDS011;9675;51.538;6.728;2023-02-18T02:11:32;15.93;;;7.60;;
19084;SDS011;9675;51.538;6.728;2023-02-18T02:14:18;21.03;;;8.13;;
19084;SDS011;9675;51.538;6.728;2023-02-18T02:17:01;15.33;;;7.20;;
19084;SDS011;9675;51.538;6.728;2023-02-18T02:19:51;10.33;;;6.17;;
19084;SDS011;9675;51.538;6.728;2023-02-18T02:23:25;17.40;;;8.77;;
19084;SDS011;9675;51.538;6.728;2023-02-18T02:36:02;9.97;;;5.03;;
19084;SDS011;9675;51.538;6.728;2023-02-18T02:38:39;8.17;;;4.23;;
19084;SDS011;9675;51.538;6.728;2023-02-18T02:41:22;9.43;;;4.37;;
19084;SDS011;9675;51.538;6.728;2023-02-18T02:44:10;10.80;;;5.83;;
19084;SDS011;9675;51.538;6.728;2023-02-18T02:46:47;11.63;;;5.40;;
19084;SDS011;9675;51.538;6.728;2023-02-18T02:49:23;8.13;;;4.43;;
19084;SDS011;9675;51.538;6.728;2023-02-18T02:52:10;12.37;;;4.97;;
19084;SDS011;9675;51.538;6.728;2023-02-18T02:54:41;6.73;;;4.10;;
19084;SDS011;9675;51.538;6.728;2023-02-18T02:57:36;8.17;;;4.40;;
19084;SDS011;9675;51.538;6.728;2023-02-18T03:00:14;6.30;;;3.33;;
19084;SDS011;9675;51.538;6.728;2023-02-18T03:02:48;7.90;;;3.27;;
19084;SDS011;9675;51.538;6.728;2023-02-18T03:05:47;8.80;;;3.63;;
19084;SDS011;9675;51.538;6.728;2023-02-18T03:08:45;10.90;;;4.87;;
19084;SDS011;9675;51.538;6.728;2023-02-18T03:11:26;7.33;;;3.03;;
19084;SDS011;9675;51.538;6.728;2023-02-18T03:14:04;6.50;;;3.73;;
19084;SDS011;9675;51.538;6.728;2023-02-18T03:16:44;8.60;;;4.37;;
19084;SDS011;9675;51.538;6.728;2023-02-18T03:19:18;8.57;;;4.13;;
19084;SDS011;9675;51.538;6.728;2023-02-18T03:21:50;7.97;;;3.20;;
19084;SDS011;9675;51.538;6.728;2023-02-18T03:24:26;6.07;;;3.13;;
19084;SDS011;9675;51.538;6.728;2023-02-18T03:26:58;9.07;;;3.67;;
19084;SDS011;9675;51.538;6.728;2023-02-18T03:29:34;8.00;;;4.37;;
19084;SDS011;9675;51.538;6.728;2023-02-18T03:32:04;7.43;;;3.47;;
19084;SDS011;9675;51.538;6.728;2023-02-18T03:34:36;5.03;;;2.70;;
19084;SDS011;9675;51.538;6.728;2023-02-18T03:37:09;5.27;;;2.80;;
19084;SDS011;9675;51.538;6.728;2023-02-18T03:39:41;7.97;;;3.73;;
19084;SDS011;9675;51.538;6.728;2023-02-18T03:42:14;6.00;;;2.97;;
19084;SDS011;9675;51.538;6.728;2023-02-18T03:44:42;11.77;;;5.50;;
19084;SDS011;9675;51.538;6.728;2023-02-18T03:47:10;8.67;;;4.07;;
19084;SDS011;9675;51.538;6.728;2023-02-18T03:49:37;8.53;;;4.30;;
19084;SDS011;9675;51.538;6.728;2023-02-18T03:52:04;11.30;;;5.10;;
19084;SDS011;9675;51.538;6.728;2023-02-18T03:54:31;8.37;;;3.60;;
19084;SDS011;9675;51.538;6.728;2023-02-18T03:56:59;9.23;;;4.27;;
19084;SDS011;9675;51.538;6.728;2023-02-18T03:59:26;1.97;;;1.47;;
19084;SDS011;9675;51.538;6.728;2023-02-18T04:01:53;13.33;;;5.73;;
19084;SDS011;9675;51.538;6.728;2023-02-18T04:04:20;9.40;;;5.43;;
19084;SDS011;9675;51.538;6.728;2023-02-18T04:06:47;10.70;;;4.60;;
19084;SDS011;9675;51.538;6.728;2023-02-18T04:09:14;11.70;;;4.80;;
19084;SDS011;9675;51.538;6.728;2023-02-18T04:11:41;12.23;;;6.23;;
19084;SDS011;9675;51.538;6.728;2023-02-18T04:14:10;6.97;;;3.60;;
19084;SDS011;9675;51.538;6.728;2023-02-18T04:16:40;10.57;;;4.60;;
19084;SDS011;9675;51.538;6.728;2023-02-18T04:19:07;9.93;;;4.30;;
19084;SDS011;9675;51.538;6.728;2023-02-18T04:21:34;8.50;;;5.00;;
19084;SDS011;9675;51.538;6.728;2023-02-18T04:24:01;11.17;;;4.50;;
19084;SDS011;9675;51.538;6.728;2023-02-18T04:26:29;7.77;;;3.70;;
19084;SDS011;9675;51.538;6.728;2023-02-18T04:28:56;6.73;;;3.00;;
19084;SDS011;9675;51.538;6.728;2023-02-18T04:31:24;10.20;;;2.63;;
19084;SDS011;9675;51.538;6.728;2023-02-18T04:33:51;5.73;;;3.40;;
19084;SDS011;9675;51.538;6.728;2023-02-18T04:36:18;4.53;;;2.67;;
19084;SDS011;9675;51.538;6.728;2023-02-18T04:38:45;4.73;;;2.30;;
19084;SDS011;9675;51.538;6.728;2023-02-18T04:41:12;4.77;;;2.20;;
19084;SDS011;9675;51.538;6.728;2023-02-18T04:43:39;4.03;;;2.47;;
19084;SDS011;9675;51.538;6.728;2023-02-18T04:46:06;4.37;;;2.40;;
19084;SDS011;9675;51.538;6.728;2023-02-18T04:48:34;1.83;;;1.33;;
19084;SDS011;9675;51.538;6.728;2023-02-18T04:51:01;5.07;;;2.10;;
19084;SDS011;9675;51.538;6.728;2023-02-18T04:53:29;3.50;;;1.57;;
19084;SDS011;9675;51.538;6.728;2023-02-18T04:55:56;4.10;;;1.73;;
19084;SDS011;9675;51.538;6.728;2023-02-18T04:58:23;2.37;;;1.10;;
19084;SDS011;9675;51.538;6.728;2023-02-18T05:00:50;1.97;;;1.10;;
19084;SDS011;9675;51.538;6.728;2023-02-18T05:03:18;2.33;;;1.10;;
19084;SDS011;9675;51.538;6.728;2023-02-18T05:05:46;1.10;;;0.60;;
19084;SDS011;9675;51.538;6.728;2023-02-18T05:08:13;2.30;;;1.13;;
19084;SDS011;9675;51.538;6.728;2023-02-18T05:10:40;1.07;;;0.70;;
19084;SDS011;9675;51.538;6.728;2023-02-18T05:13:07;1.63;;;0.73;;
19084;SDS011;9675;51.538;6.728;2023-02-18T05:15:34;0.90;;;0.60;;
19084;SDS011;9675;51.538;6.728;2023-02-18T05:18:01;2.37;;;0.80;;
19084;SDS011;9675;51.538;6.728;2023-02-18T05:20:29;0.97;;;0.70;;
19084;SDS011;9675;51.538;6.728;2023-02-18T05:22:57;3.37;;;0.80;;
19084;SDS011;9675;51.538;6.728;2023-02-18T05:25:24;4.47;;;1.43;;
19084;SDS011;9675;51.538;6.728;2023-02-18T05:27:52;4.43;;;1.40;;
19084;SDS011;9675;51.538;6.728;2023-02-18T05:30:19;2.57;;;1.50;;
19084;SDS011;9675;51.538;6.728;2023-02-18T05:32:46;19.60;;;9.17;;
19084;SDS011;9675;51.538;6.728;2023-02-18T05:35:13;15.73;;;7.13;;
19084;SDS011;9675;51.538;6.728;2023-02-18T05:37:40;1.80;;;0.93;;
19084;SDS011;9675;51.538;6.728;2023-02-18T05:40:09;3.03;;;1.33;;
19084;SDS011;9675;51.538;6.728;2023-02-18T05:42:37;3.47;;;1.60;;
19084;SDS011;9675;51.538;6.728;2023-02-18T05:45:04;2.70;;;0.87;;
19084;SDS011;9675;51.538;6.728;2023-02-18T05:47:32;1.03;;;0.50;;
19084;SDS011;9675;51.538;6.728;2023-02-18T05:49:59;2.30;;;0.60;;
19084;SDS011;9675;51.538;6.728;2023-02-18T05:52:26;0.73;;;0.47;;
19084;SDS011;9675;51.538;6.728;2023-02-18T05:54:53;1.70;;;0.80;;
19084;SDS011;9675;51.538;6.728;2023-02-18T05:57:22;2.40;;;0.43;;
19084;SDS011;9675;51.538;6.728;2023-02-18T05:59:49;1.63;;;0.90;;
19084;SDS011;9675;51.538;6.728;2023-02-18T06:02:16;1.03;;;0.67;;
19084;SDS011;9675;51.538;6.728;2023-02-18T06:04:43;1.53;;;0.90;;
19084;SDS011;9675;51.538;6.728;2023-02-18T06:07:10;0.70;;;0.50;;
19084;SDS011;9675;51.538;6.728;2023-02-18T06:09:37;0.70;;;0.57;;
19084;SDS011;9675;51.538;6.728;2023-02-18T06:12:04;0.70;;;0.60;;
19084;SDS011;9675;51.538;6.728;2023-02-18T06:14:33;0.60;;;0.30;;
19084;SDS011;9675;51.538;6.728;2023-02-18T06:17:00;1.53;;;0.97;;
19084;SDS011;9675;51.538;6.728;2023-02-18T06:19:27;0.70;;;0.50;;
19084;SDS011;9675;51.538;6.728;2023-02-18T06:21:54;1.13;;;0.77;;
19084;SDS011;9675;51.538;6.728;2023-02-18T06:24:21;1.53;;;0.50;;
19084;SDS011;9675;51.538;6.728;2023-02-18T06:26:48;0.77;;;0.40;;
19084;SDS011;9675;51.538;6.728;2023-02-18T06:29:15;0.93;;;0.60;;
19084;SDS011;9675;51.538;6.728;2023-02-18T06:31:44;1.13;;;0.70;;
19084;SDS011;9675;51.538;6.728;2023-02-18T06:34:11;1.03;;;0.60;;
19084;SDS011;9675;51.538;6.728;2023-02-18T06:36:38;0.73;;;0.40;;
19084;SDS011;9675;51.538;6.728;2023-02-18T06:39:06;0.73;;;0.57;;
19084;SDS011;9675;51.538;6.728;2023-02-18T06:41:35;0.67;;;0.50;;
19084;SDS011;9675;51.538;6.728;2023-02-18T06:44:05;2.10;;;0.57;;
19084;SDS011;9675;51.538;6.728;2023-02-18T06:46:39;1.70;;;0.70;;
19084;SDS011;9675;51.538;6.728;2023-02-18T06:49:18;1.17;;;0.40;;
19084;SDS011;9675;51.538;6.728;2023-02-18T06:51:45;0.73;;;0.40;;
19084;SDS011;9675;51.538;6.728;2023-02-18T06:54:12;2.00;;;0.50;;
19084;SDS011;9675;51.538;6.728;2023-02-18T06:56:41;1.50;;;0.70;;
19084;SDS011;9675;51.538;6.728;2023-02-18T06:59:08;1.67;;;0.70;;
19084;SDS011;9675;51.538;6.728;2023-02-18T07:01:35;1.17;;;0.70;;
19084;SDS011;9675;51.538;6.728;2023-02-18T07:04:04;1.67;;;0.80;;
19084;SDS011;9675;51.538;6.728;2023-02-18T07:06:31;2.30;;;0.90;;
19084;SDS011;9675;51.538;6.728;2023-02-18T07:08:58;1.30;;;0.70;;
19084;SDS011;9675;51.538;6.728;2023-02-18T07:11:26;1.90;;;1.10;;
19084;SDS011;9675;51.538;6.728;2023-02-18T07:14:01;1.43;;;0.80;;
19084;SDS011;9675;51.538;6.728;2023-02-18T07:16:30;1.80;;;1.10;;
19084;SDS011;9675;51.538;6.728;2023-02-18T07:18:58;1.20;;;0.77;;
19084;SDS011;9675;51.538;6.728;2023-02-18T07:21:27;1.07;;;0.73;;
19084;SDS011;9675;51.538;6.728;2023-02-18T07:23:55;3.40;;;1.10;;
19084;SDS011;9675;51.538;6.728;2023-02-18T07:26:22;1.53;;;0.90;;
19084;SDS011;9675;51.538;6.728;2023-02-18T07:28:49;2.20;;;1.30;;
19084;SDS011;9675;51.538;6.728;2023-02-18T07:31:16;6.93;;;1.20;;
19084;SDS011;9675;51.538;6.728;2023-02-18T07:33:43;2.27;;;0.87;;
19084;SDS011;9675;51.538;6.728;2023-02-18T07:36:10;2.87;;;1.43;;
19084;SDS011;9675;51.538;6.728;2023-02-18T07:38:38;1.43;;;0.80;;
19084;SDS011;9675;51.538;6.728;2023-02-18T07:41:06;0.70;;;0.60;;
19084;SDS011;9675;51.538;6.728;2023-02-18T07:43:42;0.97;;;0.70;;
19084;SDS011;9675;51.538;6.728;2023-02-18T07:46:09;2.40;;;0.90;;
19084;SDS011;9675;51.538;6.728;2023-02-18T07:48:36;2.67;;;1.20;;
19084;SDS011;9675;51.538;6.728;2023-02-18T07:51:04;1.60;;;0.80;;
19084;SDS011;9675;51.538;6.728;2023-02-18T07:53:33;1.63;;;0.80;;
19084;SDS011;9675;51.538;6.728;2023-02-18T07:56:01;2.00;;;1.20;;
19084;SDS011;9675;51.538;6.728;2023-02-18T07:58:30;1.10;;;0.70;;
19084;SDS011;9675;51.538;6.728;2023-02-18T08:01:03;0.63;;;0.60;;
19084;SDS011;9675;51.538;6.728;2023-02-18T08:03:31;2.43;;;1.13;;
19084;SDS011;9675;51.538;6.728;2023-02-18T08:05:59;1.30;;;1.20;;
19084;SDS011;9675;51.538;6.728;2023-02-18T08:08:29;3.53;;;2.10;;
19084;SDS011;9675;51.538;6.728;2023-02-18T08:10:58;2.77;;;1.37;;
19084;SDS011;9675;51.538;6.728;2023-02-18T08:13:31;4.37;;;2.40;;
19084;SDS011;9675;51.538;6.728;2023-02-18T08:15:58;6.03;;;3.50;;
19084;SDS011;9675;51.538;6.728;2023-02-18T08:18:25;2.47;;;1.73;;
19084;SDS011;9675;51.538;6.728;2023-02-18T08:20:52;1.80;;;1.10;;
19084;SDS011;9675;51.538;6.728;2023-02-18T08:23:20;1.60;;;1.10;;
19084;SDS011;9675;51.538;6.728;2023-02-18T08:25:50;1.03;;;0.63;;
19084;SDS011;9675;51.538;6.728;2023-02-18T08:28:20;4.87;;;1.90;;
19084;SDS011;9675;51.538;6.728;2023-02-18T08:30:49;3.17;;;1.53;;
19084;SDS011;9675;51.538;6.728;2023-02-18T08:33:19;4.30;;;1.07;;
19084;SDS011;9675;51.538;6.728;2023-02-18T08:35:49;2.50;;;1.27;;
19084;SDS011;9675;51.538;6.728;2023-02-18T08:38:18;2.17;;;1.40;;
19084;SDS011;9675;51.538;6.728;2023-02-18T08:40:46;3.90;;;1.20;;
19084;SDS011;9675;51.538;6.728;2023-02-18T08:43:14;3.00;;;1.60;;
19084;SDS011;9675;51.538;6.728;2023-02-18T08:45:44;4.27;;;1.33;;
19084;SDS011;9675;51.538;6.728;2023-02-18T08:48:12;1.67;;;0.90;;
19084;SDS011;9675;51.538;6.728;2023-02-18T08:50:40;1.73;;;0.87;;
19084;SDS011;9675;51.538;6.728;2023-02-18T08:53:07;1.30;;;0.37;;
19084;SDS011;9675;51.538;6.728;2023-02-18T08:55:34;3.50;;;1.43;;
19084;SDS011;9675;51.538;6.728;2023-02-18T08:58:03;4.67;;;1.37;;
19084;SDS011;9675;51.538;6.728;2023-02-18T09:00:31;2.23;;;1.20;;
19084;SDS011;9675;51.538;6.728;2023-02-18T09:03:00;5.63;;;1.57;;
19084;SDS011;9675;51.538;6.728;2023-02-18T09:05:28;1.97;;;0.93;;
19084;SDS011;9675;51.538;6.728;2023-02-18T09:07:55;1.67;;;0.47;;
19084;SDS011;9675;51.538;6.728;2023-02-18T09:10:23;2.20;;;0.70;;
19084;SDS011;9675;51.538;6.728;2023-02-18T09:12:50;4.23;;;1.43;;
19084;SDS011;9675;51.538;6.728;2023-02-18T09:15:17;6.87;;;0.90;;
19084;SDS011;9675;51.538;6.728;2023-02-18T09:17:44;15.40;;;2.23;;
19084;SDS011;9675;51.538;6.728;2023-02-18T09:20:13;5.30;;;1.90;;
19084;SDS011;9675;51.538;6.728;2023-02-18T09:22:40;2.03;;;1.30;;
19084;SDS011;9675;51.538;6.728;2023-02-18T09:25:07;7.50;;;1.63;;
19084;SDS011;9675;51.538;6.728;2023-02-18T09:27:34;6.40;;;1.90;;
19084;SDS011;9675;51.538;6.728;2023-02-18T09:30:02;8.33;;;2.40;;
19084;SDS011;9675;51.538;6.728;2023-02-18T09:32:30;2.23;;;1.40;;
19084;SDS011;9675;51.538;6.728;2023-02-18T09:34:57;3.50;;;1.50;;
19084;SDS011;9675;51.538;6.728;2023-02-18T09:37:25;2.67;;;1.40;;
19084;SDS011;9675;51.538;6.728;2023-02-18T09:39:52;3.50;;;1.33;;
19084;SDS011;9675;51.538;6.728;2023-02-18T09:42:20;8.10;;;2.63;;
19084;SDS011;9675;51.538;6.728;2023-02-18T09:44:58;4.47;;;1.43;;
19084;SDS011;9675;51.538;6.728;2023-02-18T09:47:31;6.47;;;1.93;;
19084;SDS011;9675;51.538;6.728;2023-02-18T09:50:04;8.17;;;1.97;;
19084;SDS011;9675;51.538;6.728;2023-02-18T09:52:40;7.10;;;1.07;;
19084;SDS011;9675;51.538;6.728;2023-02-18T09:55:18;1.30;;;0.93;;
19084;SDS011;9675;51.538;6.728;2023-02-18T09:57:51;4.77;;;1.43;;
19084;SDS011;9675;51.538;6.728;2023-02-18T10:00:23;2.00;;;0.73;;
19084;SDS011;9675;51.538;6.728;2023-02-18T10:02:58;6.20;;;1.60;;
19084;SDS011;9675;51.538;6.728;2023-02-18T10:05:31;3.20;;;1.67;;
19084;SDS011;9675;51.538;6.728;2023-02-18T10:08:04;8.33;;;2.27;;
19084;SDS011;9675;51.538;6.728;2023-02-18T10:10:42;2.67;;;1.47;;
19084;SDS011;9675;51.538;6.728;2023-02-18T10:13:12;4.17;;;1.20;;
19084;SDS011;9675;51.538;6.728;2023-02-18T10:15:42;6.57;;;1.63;;
19084;SDS011;9675;51.538;6.728;2023-02-18T10:18:16;3.70;;;1.53;;
19084;SDS011;9675;51.538;6.728;2023-02-18T10:20:56;4.33;;;0.90;;
19084;SDS011;9675;51.538;6.728;2023-02-18T10:23:33;9.77;;;1.70;;
19084;SDS011;9675;51.538;6.728;2023-02-18T10:26:06;5.13;;;1.30;;
19084;SDS011;9675;51.538;6.728;2023-02-18T10:28:39;4.87;;;2.17;;
19084;SDS011;9675;51.538;6.728;2023-02-18T10:31:08;3.07;;;1.43;;
19084;SDS011;9675;51.538;6.728;2023-02-18T10:33:41;5.90;;;1.40;;
19084;SDS011;9675;51.538;6.728;2023-02-18T10:36:22;9.47;;;2.83;;
19084;SDS011;9675;51.538;6.728;2023-02-18T10:39:00;5.13;;;2.63;;
19084;SDS011;9675;51.538;6.728;2023-02-18T10:41:57;8.67;;;4.27;;
19084;SDS011;9675;51.538;6.728;2023-02-18T10:44:36;8.13;;;3.10;;
19084;SDS011;9675;51.538;6.728;2023-02-18T10:47:19;7.73;;;2.40;;
19084;SDS011;9675;51.538;6.728;2023-02-18T10:49:57;8.33;;;2.40;;
19084;SDS011;9675;51.538;6.728;2023-02-18T10:52:26;6.90;;;2.30;;
19084;SDS011;9675;51.538;6.728;2023-02-18T10:55:01;10.27;;;2.37;;
19084;SDS011;9675;51.538;6.728;2023-02-18T10:57:33;6.73;;;1.40;;
19084;SDS011;9675;51.538;6.728;2023-02-18T11:00:16;6.00;;;1.20;;
19084;SDS011;9675;51.538;6.728;2023-02-18T11:02:59;5.30;;;1.47;;
19084;SDS011;9675;51.538;6.728;2023-02-18T11:05:38;2.80;;;1.13;;
19084;SDS011;9675;51.538;6.728;2023-02-18T11:08:08;4.73;;;1.60;;
19084;SDS011;9675;51.538;6.728;2023-02-18T11:10:43;5.90;;;1.33;;
19084;SDS011;9675;51.538;6.728;2023-02-18T11:13:12;4.57;;;1.30;;
19084;SDS011;9675;51.538;6.728;2023-02-18T11:15:52;2.60;;;0.77;;
19084;SDS011;9675;51.538;6.728;2023-02-18T11:18:34;7.57;;;1.80;;
19084;SDS011;9675;51.538;6.728;2023-02-18T11:21:05;1.27;;;0.90;;
19084;SDS011;9675;51.538;6.728;2023-02-18T11:23:47;7.70;;;2.20;;
19084;SDS011;9675;51.538;6.728;2023-02-18T11:26:20;4.60;;;1.47;;
19084;SDS011;9675;51.538;6.728;2023-02-18T11:28:56;7.70;;;1.53;;
19084;SDS011;9675;51.538;6.728;2023-02-18T11:31:30;3.67;;;1.73;;
19084;SDS011;9675;51.538;6.728;2023-02-18T11:34:12;9.07;;;2.17;;
19084;SDS011;9675;51.538;6.728;2023-02-18T11:36:45;2.20;;;1.53;;
19084;SDS011;9675;51.538;6.728;2023-02-18T11:39:16;1.77;;;1.00;;
19084;SDS011;9675;51.538;6.728;2023-02-18T11:41:53;4.50;;;1.07;;
19084;SDS011;9675;51.538;6.728;2023-02-18T11:44:24;2.00;;;1.23;;
19084;SDS011;9675;51.538;6.728;2023-02-18T11:46:57;3.93;;;1.77;;
19084;SDS011;9675;51.538;6.728;2023-02-18T11:49:27;7.17;;;1.73;;
19084;SDS011;9675;51.538;6.728;2023-02-18T11:52:03;3.10;;;1.33;;
19084;SDS011;9675;51.538;6.728;2023-02-18T11:54:42;1.70;;;0.77;;
19084;SDS011;9675;51.538;6.728;2023-02-18T11:57:26;4.37;;;1.00;;
19084;SDS011;9675;51.538;6.728;2023-02-18T11:59:54;3.07;;;1.20;;
19084;SDS011;9675;51.538;6.728;2023-02-18T12:02:26;4.13;;;1.57;;
19084;SDS011;9675;51.538;6.728;2023-02-18T12:05:00;3.80;;;1.50;;
19084;SDS011;9675;51.538;6.728;2023-02-18T12:07:40;1.93;;;1.27;;
19084;SDS011;9675;51.538;6.728;2023-02-18T12:10:11;2.00;;;1.50;;
19084;SDS011;9675;51.538;6.728;2023-02-18T12:12:51;1.43;;;0.93;;
19084;SDS011;9675;51.538;6.728;2023-02-18T12:15:30;3.33;;;1.27;;
19084;SDS011;9675;51.538;6.728;2023-02-18T12:18:19;7.67;;;1.70;;
19084;SDS011;9675;51.538;6.728;2023-02-18T12:21:14;1.40;;;0.80;;
19084;SDS011;9675;51.538;6.728;2023-02-18T12:24:09;2.03;;;1.20;;
19084;SDS011;9675;51.538;6.728;2023-02-18T12:26:53;2.70;;;1.23;;
19084;SDS011;9675;51.538;6.728;2023-02-18T12:29:41;4.97;;;2.07;;
19084;SDS011;9675;51.538;6.728;2023-02-18T12:32:46;8.37;;;1.80;;
19084;SDS011;9675;51.538;6.728;2023-02-18T12:35:36;4.53;;;1.53;;
19084;SDS011;9675;51.538;6.728;2023-02-18T12:38:28;2.70;;;1.23;;
19084;SDS011;9675;51.538;6.728;2023-02-18T12:41:22;1.67;;;1.03;;
19084;SDS011;9675;51.538;6.728;2023-02-18T12:44:08;1.90;;;1.37;;
19084;SDS011;9675;51.538;6.728;2023-02-18T12:47:05;3.13;;;1.63;;
19084;SDS011;9675;51.538;6.728;2023-02-18T12:50:02;3.37;;;1.63;;
19084;SDS011;9675;51.538;6.728;2023-02-18T12:52:53;3.00;;;1.90;;
19084;SDS011;9675;51.538;6.728;2023-02-18T12:55:44;4.40;;;2.20;;
19084;SDS011;9675;51.538;6.728;2023-02-18T12:58:28;3.93;;;2.03;;
19084;SDS011;9675;51.538;6.728;2023-02-18T13:01:16;2.87;;;2.10;;
19084;SDS011;9675;51.538;6.728;2023-02-18T13:07:32;1.60;;;1.00;;
19084;SDS011;9675;51.538;6.728;2023-02-18T13:13:30;6.57;;;1.70;;
19084;SDS011;9675;51.538;6.728;2023-02-18T13:16:02;3.67;;;2.20;;
19084;SDS011;9675;51.538;6.728;2023-02-18T13:18:37;2.93;;;1.63;;
19084;SDS011;9675;51.538;6.728;2023-02-18T13:21:09;3.47;;;1.87;;
19084;SDS011;9675;51.538;6.728;2023-02-18T13:23:42;2.63;;;2.03;;
19084;SDS011;9675;51.538;6.728;2023-02-18T13:26:18;4.77;;;1.67;;
19084;SDS011;9675;51.538;6.728;2023-02-18T13:28:48;3.70;;;2.80;;
19084;SDS011;9675;51.538;6.728;2023-02-18T13:31:32;3.73;;;2.20;;
19084;SDS011;9675;51.538;6.728;2023-02-18T13:34:09;1.90;;;1.33;;
19084;SDS011;9675;51.538;6.728;2023-02-18T13:36:51;5.27;;;2.27;;
19084;SDS011;9675;51.538;6.728;2023-02-18T13:39:29;4.10;;;2.70;;
19084;SDS011;9675;51.538;6.728;2023-02-18T13:47:55;7.57;;;2.47;;
19084;SDS011;9675;51.538;6.728;2023-02-18T13:50:26;5.67;;;3.03;;
19084;SDS011;9675;51.538;6.728;2023-02-18T13:53:13;5.57;;;2.77;;
19084;SDS011;9675;51.538;6.728;2023-02-18T13:55:52;11.00;;;3.97;;
19084;SDS011;9675;51.538;6.728;2023-02-18T13:58:35;9.07;;;4.23;;
19084;SDS011;9675;51.538;6.728;2023-02-18T14:01:13;8.27;;;4.20;;
19084;SDS011;9675;51.538;6.728;2023-02-18T14:10:30;7.50;;;3.30;;
19084;SDS011;9675;51.538;6.728;2023-02-18T14:13:24;10.60;;;4.10;;
19084;SDS011;9675;51.538;6.728;2023-02-18T14:16:05;8.53;;;4.73;;
19084;SDS011;9675;51.538;6.728;2023-02-18T14:21:39;8.93;;;4.47;;
19084;SDS011;9675;51.538;6.728;2023-02-18T14:24:08;10.90;;;4.63;;
19084;SDS011;9675;51.538;6.728;2023-02-18T14:26:45;6.80;;;3.67;;
19084;SDS011;9675;51.538;6.728;2023-02-18T14:29:20;12.53;;;4.30;;
19084;SDS011;9675;51.538;6.728;2023-02-18T14:31:56;8.10;;;4.37;;
19084;SDS011;9675;51.538;6.728;2023-02-18T14:37:44;8.23;;;4.10;;
19084;SDS011;9675;51.538;6.728;2023-02-18T14:41:01;7.90;;;4.17;;
19084;SDS011;9675;51.538;6.728;2023-02-18T14:44:06;9.43;;;4.60;;
19084;SDS011;9675;51.538;6.728;2023-02-18T14:46:57;6.97;;;3.00;;
19084;SDS011;9675;51.538;6.728;2023-02-18T14:49:47;8.47;;;4.23;;
19084;SDS011;9675;51.538;6.728;2023-02-18T14:52:21;6.47;;;4.27;;
19084;SDS011;9675;51.538;6.728;2023-02-18T14:54:56;8.33;;;4.50;;
19084;SDS011;9675;51.538;6.728;2023-02-18T14:57:28;7.53;;;4.27;;
19084;SDS011;9675;51.538;6.728;2023-02-18T15:00:06;5.93;;;3.70;;
19084;SDS011;9675;51.538;6.728;2023-02-18T15:02:42;11.33;;;4.30;;
19084;SDS011;9675;51.538;6.728;2023-02-18T15:05:13;7.90;;;4.20;;
19084;SDS011;9675;51.538;6.728;2023-02-18T15:07:53;7.90;;;4.37;;
19084;SDS011;9675;51.538;6.728;2023-02-18T15:10:24;27.33;;;8.43;;
19084;SDS011;9675;51.538;6.728;2023-02-18T15:13:01;12.77;;;5.63;;
19084;SDS011;9675;51.538;6.728;2023-02-18T15:15:32;12.67;;;4.43;;
19084;SDS011;9675;51.538;6.728;2023-02-18T15:18:01;12.67;;;6.03;;
19084;SDS011;9675;51.538;6.728;2023-02-18T15:20:30;7.93;;;4.30;;
19084;SDS011;9675;51.538;6.728;2023-02-18T15:23:00;14.43;;;7.83;;
19084;SDS011;9675;51.538;6.728;2023-02-18T15:25:27;12.00;;;6.80;;
19084;SDS011;9675;51.538;6.728;2023-02-18T15:27:57;10.40;;;5.97;;
19084;SDS011;9675;51.538;6.728;2023-02-18T15:30:25;14.10;;;6.27;;
19084;SDS011;9675;51.538;6.728;2023-02-18T15:32:57;10.77;;;5.13;;
19084;SDS011;9675;51.538;6.728;2023-02-18T15:35:26;13.40;;;6.00;;
19084;SDS011;9675;51.538;6.728;2023-02-18T15:37:57;13.80;;;6.30;;
19084;SDS011;9675;51.538;6.728;2023-02-18T15:40:27;16.77;;;7.67;;
19084;SDS011;9675;51.538;6.728;2023-02-18T15:42:59;11.80;;;5.83;;
19084;SDS011;9675;51.538;6.728;2023-02-18T15:45:32;12.67;;;5.67;;
19084;SDS011;9675;51.538;6.728;2023-02-18T15:48:05;12.90;;;6.83;;
19084;SDS011;9675;51.538;6.728;2023-02-18T15:50:34;18.90;;;7.47;;
19084;SDS011;9675;51.538;6.728;2023-02-18T15:53:18;15.17;;;7.23;;
19084;SDS011;9675;51.538;6.728;2023-02-18T15:55:48;17.80;;;7.00;;
19084;SDS011;9675;51.538;6.728;2023-02-18T15:58:20;14.77;;;6.23;;
19084;SDS011;9675;51.538;6.728;2023-02-18T16:00:54;16.30;;;7.63;;
19084;SDS011;9675;51.538;6.728;2023-02-18T16:03:25;15.57;;;7.23;;
19084;SDS011;9675;51.538;6.728;2023-02-18T16:06:09;14.47;;;6.30;;
19084;SDS011;9675;51.538;6.728;2023-02-18T16:08:45;15.67;;;8.80;;
19084;SDS011;9675;51.538;6.728;2023-02-18T16:11:22;31.60;;;12.27;;